New Whiteland, Indiana
Current Conditions -  °F | °C
As of 5:54 AM on Friday 28 Nov 2014 (Local Time) from KIND Reporting Station
Overcast Overcast  
Wind Chill: 15°   Ceiling: 9500
Heat Index: 21°   Visibility: 9mi
Dew Point: 17°   Wind: 5mph
Humidity: 85%   Direction: 240°WSW
Pressure: 30.37"   Gusts: NA
Location:  39.551°N, 86.0995°W
Report Text: KIND 281054Z 24004KT 9SM FEW009 OVC095 M06/M08 A3037 RMK AO2 SLP295 T10611083
Loading
Personal Weather Stations






























Interactive Weather Map New forecast layout! Learn more

10-Day Weather Forecast

Advertisements
Track Severe Weather on mobile